Time;durP1;ratioP1;P1;durP2;ratioP2;P2;SDS_P1;SDS_P2;PMS_P1;PMS_P2;Temp;Humidity;BMP_temperature;BMP_pressure;BME280_temperature;BME280_humidity;BME280_pressure;Samples;Min_cycle;Max_cycle;Signal;HPM_P1;HPM_P2
2022/07/02 00:01:57;;;;;;;5.32;4.68;;;13.90;99.90;;;;;;5065509;28;20032;-75
2022/07/02 00:04:29;;;;;;;5.68;4.03;;;13.90;99.90;;;;;;5060651;28;20020;-74
2022/07/02 00:06:55;;;;;;;5.60;4.13;;;14.00;99.90;;;;;;5060741;28;20479;-74
2022/07/02 00:09:22;;;;;;;4.75;4.30;;;14.10;99.90;;;;;;5053757;28;20021;-75
2022/07/02 00:11:49;;;;;;;6.25;4.28;;;14.00;99.90;;;;;;5063414;28;20496;-75
2022/07/02 00:14:15;;;;;;;6.40;4.43;;;13.90;99.90;;;;;;5065674;28;20043;-75
2022/07/02 00:16:45;;;;;;;6.35;4.32;;;13.90;99.90;;;;;;5052031;28;20031;-75
2022/07/02 00:19:13;;;;;;;4.90;4.30;;;13.80;99.90;;;;;;5036124;28;20028;-75
2022/07/02 00:21:39;;;;;;;7.93;4.35;;;13.80;99.90;;;;;;5070832;28;20024;-75
2022/07/02 00:24:07;;;;;;;4.88;4.22;;;13.60;99.90;;;;;;5068973;28;20021;-76
2022/07/02 00:26:36;;;;;;;6.25;4.82;;;13.60;99.90;;;;;;5072153;28;20016;-75
2022/07/02 00:29:21;;;;;;;6.07;4.90;;;13.40;99.90;;;;;;5070431;28;20052;-75
2022/07/02 00:31:49;;;;;;;5.93;4.40;;;13.40;99.90;;;;;;5071405;28;20025;-75
2022/07/02 00:34:16;;;;;;;6.40;4.70;;;13.50;99.90;;;;;;5053501;28;20036;-75
2022/07/02 00:36:43;;;;;;;6.18;4.40;;;13.50;99.90;;;;;;5069407;28;20060;-75
2022/07/02 00:39:08;;;;;;;7.57;4.68;;;13.50;99.90;;;;;;5051678;28;20032;-75
2022/07/02 00:41:35;;;;;;;8.60;4.55;;;13.50;99.90;;;;;;5063403;28;20033;-75
2022/07/02 00:44:02;;;;;;;5.25;4.55;;;13.50;99.90;;;;;;5059775;28;20032;-76
2022/07/02 00:46:29;;;;;;;4.32;3.92;;;13.60;99.90;;;;;;5047594;28;20051;-76
2022/07/02 00:48:55;;;;;;;5.30;4.40;;;13.60;99.90;;;;;;5064430;28;20032;-75
2022/07/02 00:51:20;;;;;;;4.72;4.20;;;13.70;99.90;;;;;;5053848;28;20643;-74
2022/07/02 00:53:47;;;;;;;6.57;4.93;;;13.70;99.90;;;;;;5051506;28;20025;-75
2022/07/02 00:56:13;;;;;;;5.55;4.90;;;13.60;99.90;;;;;;5065295;28;20021;-75
2022/07/02 00:58:39;;;;;;;6.85;4.43;;;13.70;99.90;;;;;;5062924;28;20510;-75
2022/07/02 01:01:04;;;;;;;6.18;4.90;;;13.70;99.90;;;;;;5057534;28;20032;-76
2022/07/02 01:03:31;;;;;;;6.88;4.93;;;13.60;99.90;;;;;;5042909;28;20536;-75
2022/07/02 01:05:57;;;;;;;6.53;4.47;;;13.20;99.90;;;;;;5038316;28;20016;-75
2022/07/02 01:11:10;;;;;;;5.65;4.60;;;13.50;99.90;;;;;;5043516;28;20036;-76
2022/07/02 01:13:35;;;;;;;8.15;5.32;;;13.40;99.90;;;;;;5065499;28;20475;-77
2022/07/02 01:16:01;;;;;;;12.90;4.95;;;13.10;99.90;;;;;;5053678;28;20039;-76
2022/07/02 01:18:27;;;;;;;5.82;4.78;;;13.00;99.90;;;;;;5057686;28;20032;-76
2022/07/02 01:20:53;;;;;;;9.02;5.47;;;13.10;99.90;;;;;;5051327;28;20029;-75
2022/07/02 01:23:18;;;;;;;6.05;4.72;;;12.60;99.90;;;;;;5051487;28;20079;-75
2022/07/02 01:25:51;;;;;;;10.70;5.20;;;13.00;99.90;;;;;;5065389;28;20025;-76
2022/07/02 01:28:18;;;;;;;5.47;4.30;;;13.00;99.90;;;;;;5055571;28;20360;-75
2022/07/02 01:30:43;;;;;;;5.75;4.82;;;13.10;99.90;;;;;;5062971;28;20032;-75
2022/07/02 01:33:09;;;;;;;7.63;4.80;;;13.30;99.90;;;;;;5060491;28;20029;-75
2022/07/02 01:35:35;;;;;;;8.38;5.00;;;13.30;99.90;;;;;;5045795;28;20490;-75
2022/07/02 01:38:00;;;;;;;5.10;4.40;;;13.40;99.90;;;;;;5042634;28;20021;-75
2022/07/02 01:40:26;;;;;;;9.10;4.60;;;13.30;99.90;;;;;;5054676;28;20482;-75
2022/07/02 01:42:52;;;;;;;6.38;4.75;;;13.50;99.90;;;;;;5055107;28;20040;-75
2022/07/02 01:45:17;;;;;;;7.18;5.15;;;13.20;99.90;;;;;;5062907;28;20063;-75
2022/07/02 01:47:43;;;;;;;6.53;5.22;;;13.20;99.90;;;;;;5042917;28;20070;-74
2022/07/02 01:50:09;;;;;;;5.63;4.93;;;13.10;99.90;;;;;;5055020;28;20387;-75
2022/07/02 01:52:35;;;;;;;8.25;6.00;;;12.70;99.90;;;;;;5055441;28;20081;-76
2022/07/02 01:55:01;;;;;;;7.43;5.03;;;12.90;99.90;;;;;;5067516;28;20147;-75
2022/07/02 01:57:33;;;;;;;7.10;5.55;;;12.90;99.90;;;;;;5054980;28;20029;-75
2022/07/02 01:59:59;;;;;;;9.32;6.38;;;13.10;99.90;;;;;;5063386;28;20032;-74
2022/07/02 02:02:25;;;;;;;6.78;5.57;;;12.90;99.90;;;;;;5060979;28;20029;-75
2022/07/02 02:04:51;;;;;;;7.72;5.57;;;12.80;99.90;;;;;;5065717;28;20025;-75
2022/07/02 02:07:16;;;;;;;7.53;5.00;;;12.70;99.90;;;;;;5052637;28;20020;-75
2022/07/02 02:09:42;;;;;;;10.63;5.13;;;12.80;99.90;;;;;;5047712;28;20025;-75
2022/07/02 02:12:08;;;;;;;8.43;5.22;;;12.80;99.90;;;;;;5069804;28;20020;-74
2022/07/02 02:14:34;;;;;;;7.25;5.63;;;12.80;99.90;;;;;;5047928;28;20518;-74
2022/07/02 02:17:00;;;;;;;8.80;5.65;;;13.00;99.90;;;;;;5054535;28;20017;-74
2022/07/02 02:19:25;;;;;;;8.90;5.90;;;13.00;99.90;;;;;;5054550;28;20021;-74
2022/07/02 02:21:51;;;;;;;9.70;5.68;;;13.10;99.90;;;;;;5053936;28;20055;-74
2022/07/02 02:24:17;;;;;;;6.78;5.22;;;13.10;99.90;;;;;;5063535;28;20166;-74
2022/07/02 02:26:42;;;;;;;5.63;4.57;;;13.00;99.90;;;;;;5059082;28;20071;-74
2022/07/02 02:29:08;;;;;;;7.60;4.82;;;12.90;99.90;;;;;;5054478;28;20028;-75
2022/07/02 02:31:34;;;;;;;6.82;5.32;;;12.90;99.90;;;;;;5056121;28;20452;-76
2022/07/02 02:34:00;;;;;;;6.70;4.82;;;12.90;99.90;;;;;;5065552;28;20115;-77
2022/07/02 02:36:26;;;;;;;7.88;5.10;;;12.90;99.90;;;;;;5067528;28;20621;-76
2022/07/02 02:38:53;;;;;;;6.57;5.80;;;12.90;99.90;;;;;;5044027;28;20032;-77
2022/07/02 02:41:18;;;;;;;8.15;5.25;;;12.80;99.90;;;;;;5060329;28;20057;-76
2022/07/02 02:43:44;;;;;;;7.50;5.38;;;12.80;99.90;;;;;;5065189;28;20052;-76
2022/07/02 02:46:10;;;;;;;6.80;5.38;;;12.60;99.90;;;;;;5049511;28;20536;-75
2022/07/02 02:48:37;;;;;;;6.68;4.97;;;12.70;99.90;;;;;;5054233;28;20029;-76
2022/07/02 02:51:03;;;;;;;9.05;5.03;;;12.60;99.90;;;;;;5055959;28;20057;-76
2022/07/02 02:53:29;;;;;;;9.50;4.97;;;12.60;99.90;;;;;;5074281;28;20028;-73
2022/07/02 02:55:55;;;;;;;11.30;4.72;;;12.60;99.90;;;;;;5055554;28;20037;-75
2022/07/02 02:58:20;;;;;;;6.47;5.07;;;12.30;99.90;;;;;;5055092;28;20112;-75
2022/07/02 03:00:46;;;;;;;11.13;4.68;;;12.50;99.90;;;;;;5073360;28;20048;-75
2022/07/02 03:03:11;;;;;;;9.50;4.63;;;12.40;99.90;;;;;;5064639;28;20407;-75
2022/07/02 03:05:37;;;;;;;9.02;5.35;;;12.50;99.90;;;;;;5053499;28;20390;-75
2022/07/02 03:08:03;;;;;;;11.50;4.75;;;12.20;99.90;;;;;;5024542;28;20063;-75
2022/07/02 03:10:28;;;;;;;5.05;4.35;;;12.20;99.90;;;;;;5053185;28;20025;-75
2022/07/02 03:12:54;;;;;;;9.60;5.53;;;12.20;99.90;;;;;;5053580;28;20411;-75
2022/07/02 03:15:20;;;;;;;11.85;5.88;;;12.10;99.90;;;;;;5053543;28;20013;-75
2022/07/02 03:17:45;;;;;;;10.02;5.30;;;12.00;99.90;;;;;;5062488;28;20025;-76
2022/07/02 03:20:11;;;;;;;7.60;4.43;;;11.90;99.90;;;;;;5039969;28;20025;-76
2022/07/02 03:22:37;;;;;;;9.30;5.22;;;12.00;99.90;;;;;;5062015;28;20537;-75
2022/07/02 03:25:03;;;;;;;7.28;4.68;;;11.90;99.90;;;;;;5041996;28;20136;-75
2022/07/02 03:27:30;;;;;;;8.35;4.78;;;12.00;99.90;;;;;;5064570;28;20384;-75
2022/07/02 03:29:56;;;;;;;5.63;3.97;;;12.20;99.90;;;;;;5053265;28;20043;-75
2022/07/02 03:32:25;;;;;;;8.23;4.80;;;12.10;99.90;;;;;;5061677;28;20530;-75
2022/07/02 03:34:54;;;;;;;10.20;4.90;;;11.90;99.90;;;;;;5059503;28;20082;-75
2022/07/02 03:37:21;;;;;;;7.95;4.65;;;12.00;99.90;;;;;;5063508;28;20024;-75
2022/07/02 03:39:47;;;;;;;9.20;4.78;;;12.00;99.90;;;;;;5066448;28;20024;-75
2022/07/02 03:42:12;;;;;;;7.35;5.43;;;11.90;99.90;;;;;;5062460;28;20025;-75
2022/07/02 03:44:38;;;;;;;8.68;4.90;;;12.00;99.90;;;;;;5059339;28;20032;-75
2022/07/02 03:47:04;;;;;;;7.35;4.78;;;11.50;99.90;;;;;;5063418;28;20103;-74
2022/07/02 03:49:30;;;;;;;6.40;4.88;;;11.90;99.90;;;;;;5068921;28;20086;-73
2022/07/02 03:51:55;;;;;;;7.68;4.00;;;12.00;99.90;;;;;;5072114;28;20502;-73
2022/07/02 03:54:21;;;;;;;9.20;4.60;;;12.20;99.90;;;;;;5072652;28;20037;-73
2022/07/02 03:56:46;;;;;;;14.98;5.03;;;12.30;99.90;;;;;;5072662;28;20067;-74
2022/07/02 03:59:12;;;;;;;13.90;4.80;;;12.00;99.90;;;;;;5070385;28;20039;-73
2022/07/02 04:01:37;;;;;;;11.80;5.47;;;11.90;99.90;;;;;;5052072;28;20796;-74
2022/07/02 04:04:03;;;;;;;12.98;5.30;;;12.00;99.90;;;;;;5065473;28;20390;-73
2022/07/02 04:06:28;;;;;;;8.27;4.50;;;11.70;99.90;;;;;;5052473;28;20021;-73
2022/07/02 04:08:54;;;;;;;13.70;4.18;;;12.00;99.90;;;;;;5054795;28;20105;-74
2022/07/02 04:11:19;;;;;;;12.77;4.97;;;12.10;99.90;;;;;;5059516;28;20071;-73
2022/07/02 04:13:45;;;;;;;11.15;4.20;;;12.20;99.90;;;;;;5047605;28;20032;-73
2022/07/02 04:16:10;;;;;;;11.23;4.30;;;12.30;99.90;;;;;;5052450;28;20090;-73
2022/07/02 04:18:36;;;;;;;7.05;3.72;;;12.50;99.90;;;;;;5052291;28;20039;-73
2022/07/02 04:21:02;;;;;;;10.18;4.13;;;12.70;99.90;;;;;;5051685;28;20029;-73
2022/07/02 04:23:27;;;;;;;5.32;4.18;;;12.60;99.90;;;;;;5052084;28;20025;-72
2022/07/02 04:25:53;;;;;;;8.40;4.35;;;12.70;99.90;;;;;;5048529;28;20036;-73
2022/07/02 04:28:18;;;;;;;6.40;4.60;;;12.80;99.90;;;;;;5052073;28;20017;-73
2022/07/02 04:30:44;;;;;;;8.88;4.20;;;12.90;99.90;;;;;;5051466;28;20033;-73
2022/07/02 04:33:10;;;;;;;8.20;4.22;;;12.90;99.90;;;;;;5052910;28;20479;-73
2022/07/02 04:35:35;;;;;;;8.02;4.22;;;12.70;99.90;;;;;;5071897;28;20098;-73
2022/07/02 04:38:01;;;;;;;6.30;3.78;;;12.70;99.90;;;;;;5072021;28;20021;-73
2022/07/02 04:40:26;;;;;;;5.88;3.70;;;12.80;99.90;;;;;;5071186;28;20057;-74
2022/07/02 04:42:52;;;;;;;7.47;3.92;;;12.90;99.90;;;;;;5071657;28;20031;-74
2022/07/02 04:45:18;;;;;;;7.50;3.58;;;13.10;99.90;;;;;;5071812;28;20028;-74
2022/07/02 04:47:43;;;;;;;10.10;3.83;;;13.10;99.90;;;;;;5058220;28;20039;-73
2022/07/02 04:50:09;;;;;;;11.20;3.90;;;13.10;99.90;;;;;;5058792;28;20063;-73
2022/07/02 04:52:35;;;;;;;9.25;4.40;;;13.20;99.90;;;;;;5057852;28;20025;-73
2022/07/02 04:55:00;;;;;;;8.43;4.32;;;12.90;99.90;;;;;;5071661;28;20028;-74
2022/07/02 04:57:26;;;;;;;11.20;4.50;;;13.20;99.90;;;;;;5071841;28;20382;-74
2022/07/02 04:59:51;;;;;;;7.00;3.78;;;13.20;99.90;;;;;;5064517;28;20033;-74
2022/07/02 05:02:17;;;;;;;6.90;4.05;;;13.20;99.90;;;;;;5050813;28;20096;-75
2022/07/02 05:04:42;;;;;;;7.93;4.20;;;13.30;99.90;;;;;;5063628;28;20203;-74
2022/07/02 05:07:08;;;;;;;8.52;4.10;;;13.40;99.90;;;;;;5051511;28;20025;-74
2022/07/02 05:09:33;;;;;;;4.28;3.50;;;13.40;99.90;;;;;;5051565;28;20495;-74
2022/07/02 05:12:00;;;;;;;8.27;4.20;;;13.50;99.90;;;;;;5050986;28;20025;-74
2022/07/02 05:14:26;;;;;;;6.40;4.10;;;13.40;99.90;;;;;;5051462;28;20025;-74
2022/07/02 05:16:52;;;;;;;5.28;3.70;;;13.60;99.90;;;;;;5066262;28;20024;-74
2022/07/02 05:19:18;;;;;;;8.45;3.85;;;13.70;99.90;;;;;;5071486;28;20035;-74
2022/07/02 05:21:43;;;;;;;7.90;3.72;;;13.90;99.90;;;;;;5070850;28;20064;-74
2022/07/02 05:24:09;;;;;;;7.10;3.35;;;14.00;99.90;;;;;;5063596;28;20044;-74
2022/07/02 05:26:35;;;;;;;10.75;3.88;;;14.10;99.90;;;;;;5066280;28;20142;-75
2022/07/02 05:29:02;;;;;;;5.90;4.07;;;14.20;99.90;;;;;;5063245;28;20060;-75
2022/07/02 05:31:27;;;;;;;7.90;3.70;;;14.40;99.90;;;;;;5057870;28;20036;-74
2022/07/02 05:33:53;;;;;;;6.43;3.38;;;14.50;99.90;;;;;;5063234;28;20036;-75
2022/07/02 05:36:19;;;;;;;9.98;3.72;;;14.50;99.90;;;;;;5064734;28;20111;-74
2022/07/02 05:38:44;;;;;;;7.78;3.47;;;14.60;99.90;;;;;;5059227;28;20085;-74
2022/07/02 05:41:10;;;;;;;5.55;3.47;;;14.70;99.90;;;;;;5057390;28;20032;-75
2022/07/02 05:43:35;;;;;;;6.57;3.45;;;14.80;99.90;;;;;;5071262;28;20033;-75
2022/07/02 05:46:01;;;;;;;8.20;3.50;;;15.10;99.90;;;;;;5058093;28;20021;-75
2022/07/02 05:48:27;;;;;;;8.60;3.60;;;15.00;99.90;;;;;;5071290;28;20097;-75
2022/07/02 05:50:52;;;;;;;5.32;3.33;;;15.10;99.90;;;;;;5039343;28;20371;-75
2022/07/02 05:53:18;;;;;;;5.63;3.28;;;15.20;99.90;;;;;;5063561;28;20058;-74
2022/07/02 05:55:43;;;;;;;5.90;3.15;;;15.40;99.90;;;;;;5047428;28;20059;-75
2022/07/02 05:58:10;;;;;;;6.45;3.00;;;15.70;99.90;;;;;;5063573;28;20040;-75
2022/07/02 06:00:36;;;;;;;6.32;2.97;;;15.60;99.90;;;;;;5065267;28;20078;-75
2022/07/02 06:03:02;;;;;;;7.18;3.38;;;15.60;99.90;;;;;;5063101;28;20025;-74
2022/07/02 06:08:11;;;;;;;3.95;2.90;;;15.90;99.90;;;;;;5061146;28;20031;-74
2022/07/02 06:10:37;;;;;;;4.13;2.92;;;15.90;99.90;;;;;;5053703;28;20103;-74
2022/07/02 06:13:02;;;;;;;3.60;2.35;;;16.10;99.90;;;;;;5066191;28;20028;-74
2022/07/02 06:15:28;;;;;;;4.50;3.00;;;16.20;99.90;;;;;;5043495;28;20086;-75
2022/07/02 06:17:57;;;;;;;5.22;3.35;;;16.30;99.90;;;;;;5046999;28;20017;-74
2022/07/02 06:20:23;;;;;;;2.88;2.55;;;16.60;99.90;;;;;;5067378;28;20079;-75
2022/07/02 06:22:48;;;;;;;3.88;2.55;;;16.80;99.90;;;;;;5064780;28;20429;-74
2022/07/02 06:25:14;;;;;;;2.90;2.60;;;16.80;99.90;;;;;;5057742;28;20031;-73
2022/07/02 06:27:39;;;;;;;3.40;2.67;;;16.80;99.90;;;;;;5064374;28;20021;-73
2022/07/02 06:30:06;;;;;;;2.67;2.38;;;16.80;99.90;;;;;;5074473;28;20052;-71
2022/07/02 06:32:31;;;;;;;4.68;2.67;;;17.10;99.90;;;;;;5073787;28;20047;-70
2022/07/02 06:34:57;;;;;;;3.90;2.55;;;17.30;99.90;;;;;;5074106;28;20498;-70
2022/07/02 06:37:24;;;;;;;3.40;2.50;;;17.40;99.90;;;;;;5074191;28;20107;-71
2022/07/02 06:39:50;;;;;;;3.80;2.30;;;17.30;99.90;;;;;;5074154;28;20127;-71
2022/07/02 06:42:19;;;;;;;3.33;2.20;;;17.20;99.90;;;;;;5063558;28;20029;-71
2022/07/02 06:44:47;;;;;;;4.05;2.22;;;17.00;99.90;;;;;;5071322;28;20075;-71
2022/07/02 06:47:14;;;;;;;2.10;1.70;;;17.20;99.90;;;;;;5074043;28;20025;-71
2022/07/02 06:49:39;;;;;;;4.20;1.85;;;17.40;99.90;;;;;;5073918;28;20047;-71
2022/07/02 06:52:06;;;;;;;4.10;2.10;;;17.70;99.90;;;;;;5073328;28;20475;-71
2022/07/02 06:54:32;;;;;;;5.32;2.47;;;17.90;99.90;;;;;;5073795;28;20471;-71
2022/07/02 06:56:57;;;;;;;3.72;1.73;;;17.80;99.90;;;;;;5073935;28;20469;-71
2022/07/02 06:59:23;;;;;;;2.50;2.05;;;17.40;99.90;;;;;;5073813;28;20109;-71
2022/07/02 07:01:49;;;;;;;2.85;1.67;;;17.70;99.90;;;;;;5073198;28;20030;-71
2022/07/02 07:04:14;;;;;;;2.63;1.42;;;18.10;99.90;;;;;;5069562;28;20689;-71
2022/07/02 07:07:00;;;;;;;3.28;1.65;;;18.10;99.90;;;;;;5053739;28;20025;-71
2022/07/02 07:09:29;;;;;;;3.72;1.70;;;18.30;99.90;;;;;;5053725;28;20017;-71
2022/07/02 07:11:55;;;;;;;1.67;1.55;;;18.40;99.90;;;;;;5045752;28;20083;-71
2022/07/02 07:14:22;;;;;;;1.92;1.70;;;18.10;99.90;;;;;;5073476;28;20112;-71
2022/07/02 07:16:47;;;;;;;2.38;1.60;;;18.10;99.90;;;;;;5073350;28;20024;-71
2022/07/02 07:19:13;;;;;;;1.92;1.60;;;18.10;99.90;;;;;;5073576;28;20036;-70
2022/07/02 07:21:40;;;;;;;2.17;1.42;;;18.10;99.90;;;;;;5072432;28;20532;-73
2022/07/02 07:24:07;;;;;;;1.50;1.13;;;18.40;99.90;;;;;;5052572;28;20103;-73
2022/07/02 07:26:33;;;;;;;1.70;1.60;;;18.30;99.90;;;;;;5053435;28;20021;-73
2022/07/02 07:28:58;;;;;;;4.03;1.35;;;18.30;99.90;;;;;;5053285;28;20406;-73
2022/07/02 07:31:24;;;;;;;4.40;3.28;;;18.60;99.90;;;;;;5066042;28;20093;-73
2022/07/02 07:33:51;;;;;;;3.25;1.55;;;18.90;99.90;;;;;;5052784;28;20079;-73
2022/07/02 07:36:19;;;;;;;1.55;1.13;;;19.20;99.90;;;;;;5053462;28;20029;-73
2022/07/02 07:38:45;;;;;;;1.90;1.40;;;19.30;99.90;;;;;;5065726;28;20025;-74
2022/07/02 07:41:11;;;;;;;2.00;1.10;;;19.40;99.90;;;;;;5065837;28;20028;-73
2022/07/02 07:43:36;;;;;;;1.98;1.30;;;19.10;99.90;;;;;;5060421;28;20536;-73
2022/07/02 07:46:02;;;;;;;2.78;1.33;;;19.20;99.90;;;;;;5059517;28;20036;-74
2022/07/02 07:48:28;;;;;;;1.17;1.08;;;19.40;99.90;;;;;;5065359;28;20029;-73
2022/07/02 07:50:54;;;;;;;2.30;1.40;;;19.40;99.90;;;;;;5052366;28;20550;-74
2022/07/02 07:53:19;;;;;;;2.20;1.23;;;19.00;99.90;;;;;;5042501;28;20028;-74
2022/07/02 07:55:46;;;;;;;2.70;1.38;;;19.30;99.90;;;;;;5058567;28;20096;-74
2022/07/02 07:58:12;;;;;;;2.15;1.30;;;19.70;99.90;;;;;;5052874;28;20025;-73
2022/07/02 08:00:37;;;;;;;1.23;1.13;;;19.70;99.90;;;;;;5065396;28;20032;-73
2022/07/02 08:03:03;;;;;;;2.10;1.33;;;20.00;99.90;;;;;;5052659;28;20041;-74
2022/07/02 08:05:28;;;;;;;1.77;1.30;;;19.70;99.90;;;;;;5052676;28;20484;-73
2022/07/02 08:07:54;;;;;;;2.45;1.20;;;19.60;99.90;;;;;;5052490;28;20044;-74
2022/07/02 08:10:20;;;;;;;2.00;1.50;;;19.60;99.90;;;;;;5051983;28;20395;-73
2022/07/02 08:12:47;;;;;;;1.48;1.38;;;19.80;99.90;;;;;;5060053;28;20020;-73
2022/07/02 08:15:12;;;;;;;1.50;1.30;;;19.60;99.90;;;;;;5057938;28;20021;-73
2022/07/02 08:17:38;;;;;;;2.25;1.40;;;20.10;99.90;;;;;;5060173;28;20038;-72
2022/07/02 08:20:05;;;;;;;2.67;1.40;;;20.40;99.90;;;;;;5072247;28;20035;-74
2022/07/02 08:22:32;;;;;;;2.25;1.40;;;20.40;99.90;;;;;;5063971;28;20443;-74
2022/07/02 08:24:58;;;;;;;2.35;1.20;;;20.20;99.90;;;;;;5052057;28;20029;-74
2022/07/02 08:27:23;;;;;;;3.88;1.30;;;20.30;99.90;;;;;;5052361;28;20043;-74
2022/07/02 08:29:49;;;;;;;1.30;1.20;;;20.30;99.90;;;;;;5053108;28;20032;-74
2022/07/02 08:32:14;;;;;;;2.55;1.10;;;20.00;99.90;;;;;;5053481;28;20029;-74
2022/07/02 08:34:41;;;;;;;1.77;1.52;;;20.10;99.90;;;;;;5071748;28;20060;-71
2022/07/02 08:37:06;;;;;;;2.42;1.40;;;20.40;99.90;;;;;;5072221;28;20021;-72
2022/07/02 08:39:32;;;;;;;2.75;1.50;;;20.30;99.90;;;;;;5072577;28;20032;-71
2022/07/02 08:41:59;;;;;;;1.77;1.20;;;20.60;99.90;;;;;;5071515;28;20504;-72
2022/07/02 08:44:25;;;;;;;5.55;1.83;;;20.60;99.90;;;;;;5071841;28;20029;-71
2022/07/02 08:46:52;;;;;;;2.40;1.20;;;20.70;99.90;;;;;;5053861;28;20060;-71
2022/07/02 08:49:18;;;;;;;1.50;1.10;;;20.90;99.90;;;;;;5071774;28;20016;-71
2022/07/02 08:51:55;;;;;;;3.28;1.52;;;20.10;99.90;;;;;;5071178;28;20052;-71
2022/07/02 08:54:22;;;;;;;2.15;1.25;;;20.40;99.90;;;;;;5072147;28;20029;-72
2022/07/02 08:56:50;;;;;;;1.40;1.27;;;21.00;99.90;;;;;;5071759;28;20037;-71
2022/07/02 08:59:16;;;;;;;1.95;1.35;;;20.90;99.90;;;;;;5071649;28;20669;-72
2022/07/02 09:01:42;;;;;;;1.60;1.13;;;21.10;99.90;;;;;;5071036;28;20074;-72
2022/07/02 09:04:08;;;;;;;2.17;1.00;;;21.60;99.90;;;;;;5068322;28;20390;-71
2022/07/02 09:06:36;;;;;;;2.83;1.10;;;21.40;99.90;;;;;;5051665;28;20044;-71
2022/07/02 09:09:03;;;;;;;1.85;1.15;;;21.50;99.90;;;;;;5051543;28;20025;-71
2022/07/02 09:11:30;;;;;;;1.98;1.20;;;21.40;99.90;;;;;;5050870;28;20100;-72
2022/07/02 09:13:57;;;;;;;1.23;1.08;;;21.90;99.90;;;;;;5051334;28;20036;-71
2022/07/02 09:16:23;;;;;;;2.67;1.20;;;21.50;99.90;;;;;;5051649;28;20040;-71
2022/07/02 09:18:48;;;;;;;1.35;1.10;;;21.40;99.90;;;;;;5033682;28;20049;-72
2022/07/02 09:21:14;;;;;;;2.60;1.40;;;21.10;99.90;;;;;;5050965;28;20064;-72
2022/07/02 09:23:47;;;;;;;2.00;1.10;;;21.60;99.90;;;;;;5033366;28;20497;-71
2022/07/02 09:26:25;;;;;;;3.40;1.70;;;22.20;99.90;;;;;;5051334;28;20070;-72
2022/07/02 09:28:59;;;;;;;26.48;6.38;;;22.30;99.90;;;;;;5071029;28;20032;-72
2022/07/02 09:31:26;;;;;;;3.78;1.30;;;22.30;99.90;;;;;;5070702;28;20042;-72
2022/07/02 09:33:53;;;;;;;3.33;1.40;;;22.00;99.90;;;;;;5071186;28;20036;-72
2022/07/02 09:36:19;;;;;;;3.70;1.13;;;22.00;99.90;;;;;;5053178;28;20452;-72
2022/07/02 09:38:47;;;;;;;3.13;1.10;;;22.50;99.90;;;;;;5071348;28;20020;-72
2022/07/02 09:41:18;;;;;;;1.55;1.20;;;23.10;99.90;;;;;;5070687;28;20028;-72
2022/07/02 09:43:44;;;;;;;2.67;1.30;;;23.30;99.90;;;;;;5071179;28;20036;-71
2022/07/02 09:46:21;;;;;;;1.40;1.10;;;23.10;99.90;;;;;;5071172;28;20506;-72
2022/07/02 09:48:47;;;;;;;3.13;1.17;;;22.60;99.90;;;;;;5075085;28;20031;-72
2022/07/02 09:51:14;;;;;;;1.30;1.20;;;22.40;99.90;;;;;;5074453;28;20021;-71
2022/07/02 09:53:56;;;;;;;3.42;1.20;;;22.70;99.90;;;;;;5075078;28;20032;-72
2022/07/02 09:56:23;;;;;;;1.77;1.30;;;22.90;99.90;;;;;;5075162;28;20601;-72
2022/07/02 09:58:50;;;;;;;1.33;0.85;;;22.70;99.90;;;;;;5075095;28;20048;-72
2022/07/02 10:01:23;;;;;;;6.43;1.90;;;22.70;99.90;;;;;;5055379;28;20170;-72
2022/07/02 10:03:50;;;;;;;1.67;0.95;;;23.10;99.90;;;;;;5054709;28;20028;-72
2022/07/02 10:06:16;;;;;;;3.13;1.10;;;23.50;99.90;;;;;;5054861;28;20025;-72
2022/07/02 10:08:42;;;;;;;3.17;1.15;;;23.30;99.90;;;;;;5054850;28;20033;-72
2022/07/02 10:11:10;;;;;;;1.00;0.90;;;23.40;99.90;;;;;;5052192;28;20017;-72
2022/07/02 10:13:37;;;;;;;5.18;1.10;;;24.00;99.90;;;;;;5063316;28;20052;-72
2022/07/02 10:16:12;;;;;;;2.70;1.08;;;24.40;99.90;;;;;;5074619;28;20028;-72
2022/07/02 10:18:39;;;;;;;;;;;24.50;99.90;;;;;;5075040;28;20032;-72
2022/07/02 10:21:05;;;;;;;3.67;1.48;;;23.90;99.90;;;;;;5073954;28;19908;-73
2022/07/02 10:23:33;;;;;;;3.17;1.20;;;23.30;99.90;;;;;;5071398;28;20044;-74
2022/07/02 10:25:59;;;;;;;1.10;1.00;;;23.00;99.90;;;;;;5054300;28;20021;-75
2022/07/02 10:28:26;;;;;;;3.05;1.40;;;23.30;99.90;;;;;;5054283;28;20036;-75
2022/07/02 10:30:54;;;;;;;1.95;1.40;;;23.60;99.90;;;;;;5053866;28;20120;-74
2022/07/02 10:33:32;;;;;;;3.58;1.20;;;23.60;99.90;;;;;;5054148;28;20108;-75
2022/07/02 10:35:59;;;;;;;2.55;1.30;;;24.20;99.90;;;;;;5054371;28;20021;-75
2022/07/02 10:38:30;;;;;;;1.58;1.02;;;24.10;99.90;;;;;;5054198;28;20479;-74
2022/07/02 10:40:55;;;;;;;2.15;1.17;;;23.80;99.90;;;;;;5066511;28;20073;-75
2022/07/02 10:43:22;;;;;;;2.75;1.20;;;23.30;99.90;;;;;;5067526;28;20033;-74
2022/07/02 10:45:47;;;;;;;4.00;1.85;;;23.10;99.90;;;;;;5067462;28;20024;-74
2022/07/02 10:48:14;;;;;;;3.65;1.40;;;23.20;99.90;;;;;;5036419;28;20031;-75
2022/07/02 10:50:43;;;;;;;3.17;1.40;;;24.00;99.90;;;;;;5053543;28;20020;-75
2022/07/02 10:53:16;;;;;;;1.83;1.23;;;23.80;99.90;;;;;;5053510;28;20021;-75
2022/07/02 10:55:53;;;;;;;2.03;0.93;;;23.60;99.90;;;;;;5036039;28;20029;-74
2022/07/02 10:58:21;;;;;;;1.63;1.20;;;23.50;99.90;;;;;;5043911;28;20024;-74
2022/07/02 11:00:47;;;;;;;1.42;1.02;;;23.50;99.90;;;;;;5039134;28;20037;-75
2022/07/02 11:03:14;;;;;;;2.72;1.10;;;23.60;99.90;;;;;;5063330;28;20035;-74
2022/07/02 11:06:18;;;;;;;3.42;1.40;;;23.30;99.90;;;;;;5057925;28;20051;-75
2022/07/02 11:08:46;;;;;;;2.45;1.40;;;23.20;99.90;;;;;;5067970;28;20028;-75
2022/07/02 11:11:30;;;;;;;2.47;1.25;;;23.90;99.90;;;;;;5070661;28;20150;-75
2022/07/02 11:14:01;;;;;;;1.63;1.35;;;24.40;99.90;;;;;;5057343;28;20075;-74
2022/07/02 11:16:37;;;;;;;1.90;1.30;;;24.20;99.90;;;;;;5073575;28;20059;-74
2022/07/02 11:19:05;;;;;;;2.33;1.23;;;24.80;99.90;;;;;;5054424;28;20025;-74
2022/07/02 11:21:31;;;;;;;1.48;1.30;;;24.70;99.90;;;;;;5053009;28;20036;-75
2022/07/02 11:23:57;;;;;;;3.25;1.38;;;24.70;99.90;;;;;;5072671;28;20033;-75
2022/07/02 11:26:25;;;;;;;1.67;1.40;;;24.20;99.90;;;;;;5061134;28;20017;-75
2022/07/02 11:28:52;;;;;;;2.85;1.20;;;24.60;99.90;;;;;;5053331;28;20546;-74
2022/07/02 11:31:19;;;;;;;3.67;1.17;;;25.20;99.90;;;;;;5065564;28;20466;-74
2022/07/02 11:33:51;;;;;;;1.27;1.00;;;25.50;99.90;;;;;;5054528;28;20111;-74
2022/07/02 11:36:16;;;;;;;2.40;1.30;;;24.90;99.90;;;;;;5054086;28;20482;-74
2022/07/02 11:38:45;;;;;;;1.52;1.10;;;25.10;99.90;;;;;;5066312;28;20096;-75
2022/07/02 11:41:29;;;;;;;2.58;1.27;;;24.90;99.90;;;;;;5052534;28;20531;-75
2022/07/02 11:43:56;;;;;;;1.45;1.13;;;25.20;99.90;;;;;;5063323;28;20166;-74
2022/07/02 11:46:28;;;;;;;2.70;1.35;;;25.60;99.90;;;;;;5053048;28;20084;-74
2022/07/02 11:48:56;;;;;;;2.00;1.30;;;26.10;99.90;;;;;;5053028;28;20017;-74
2022/07/02 11:51:22;;;;;;;2.63;1.48;;;26.20;99.90;;;;;;5052361;28;20017;-74
2022/07/02 11:53:56;;;;;;;1.52;1.13;;;25.90;99.90;;;;;;5052722;28;20040;-75
2022/07/02 11:56:22;;;;;;;1.10;1.00;;;26.00;99.90;;;;;;5052840;28;20021;-71
2022/07/02 11:58:48;;;;;;;2.08;1.10;;;26.00;99.90;;;;;;5052806;28;20036;-72
2022/07/02 12:01:29;;;;;;;1.10;0.98;;;26.40;99.90;;;;;;5052015;28;20398;-71
2022/07/02 12:03:57;;;;;;;1.08;1.00;;;26.40;99.90;;;;;;5052483;28;20560;-72
2022/07/02 12:06:28;;;;;;;3.63;1.00;;;25.30;99.90;;;;;;5052611;28;20032;-71
2022/07/02 12:08:55;;;;;;;1.83;1.10;;;25.90;99.90;;;;;;5052537;28;20017;-71
2022/07/02 12:11:22;;;;;;;3.28;2.00;;;26.00;99.90;;;;;;5047947;28;20032;-71
2022/07/02 12:13:49;;;;;;;1.17;1.08;;;26.70;99.90;;;;;;5063850;28;20035;-72
2022/07/02 12:16:18;;;;;;;2.58;1.10;;;26.60;98.70;;;;;;5072260;28;20081;-71
2022/07/02 12:18:44;;;;;;;2.80;1.10;;;26.10;99.90;;;;;;5072194;28;20559;-71
2022/07/02 12:21:18;;;;;;;3.25;1.15;;;26.60;99.90;;;;;;5071721;28;20024;-72
2022/07/02 12:23:49;;;;;;;2.47;1.30;;;27.30;99.90;;;;;;5072213;28;20059;-72
2022/07/02 12:26:26;;;;;;;1.75;1.27;;;27.30;99.60;;;;;;5072211;28;20028;-72
2022/07/02 12:31:54;;;;;;;2.47;1.17;;;27.30;99.00;;;;;;5071502;28;20028;-72
2022/07/02 12:34:22;;;;;;;2.22;1.30;;;26.80;98.80;;;;;;5071865;28;20668;-72
2022/07/02 12:36:57;;;;;;;1.85;1.10;;;26.10;99.20;;;;;;5071994;28;20028;-72
2022/07/02 12:39:25;;;;;;;1.75;1.30;;;26.80;98.40;;;;;;5072048;28;20044;-72
2022/07/02 12:41:51;;;;;;;2.55;1.20;;;27.10;98.20;;;;;;5071196;28;20028;-72
2022/07/02 12:44:22;;;;;;;1.30;1.20;;;26.80;99.00;;;;;;5071829;28;20024;-72
2022/07/02 12:46:51;;;;;;;1.25;1.15;;;27.10;98.20;;;;;;5071920;28;20058;-72
2022/07/02 12:49:21;;;;;;;1.70;1.02;;;27.70;98.20;;;;;;5053842;28;20063;-72
2022/07/02 12:51:58;;;;;;;1.45;1.30;;;27.60;98.10;;;;;;5071213;28;20031;-72
2022/07/02 12:54:33;;;;;;;1.48;1.10;;;27.80;97.60;;;;;;5071618;28;20029;-72